GLO1798 SBSN-SBBE
Flight info
| Callsign | GLO1798 |
|---|---|
| Flight time | 1h 12m |
| Altitude | 37000 |
| Route | EMAKE DCT NUVUG UZ81 DADUD DCT PAKUT |
| Aircraft | B738/M-SDFGIKLORWXY/LB1 |
Departure
| Time | 2026-04-25 11:41 |
|---|---|
| Airport | Santarém - Maestro Wilson Fonseca International Airport (SBSN) |
Arrival
| Time | 2026-04-25 12:54 |
|---|---|
| Airport | Val de Cans/Júlio Cezar Ribeiro International Airport (SBBE) |
| Time | Latitude | Longitude | Altitude | Speed | Heading |
|---|---|---|---|---|---|
| 2026-04-25 11:15 | -2.42343 | -54.78422 | 201 ft | 0 kts | 177° |
| 2026-04-25 11:31 | -2.42331 | -54.78423 | 205 ft | 2 kts | 178° |
| 2026-04-25 11:31 | -2.42310 | -54.78421 | 203 ft | 4 kts | 222° |
| 2026-04-25 11:32 | -2.42301 | -54.78400 | 206 ft | 4 kts | 272° |
| 2026-04-25 11:32 | -2.42303 | -54.78382 | 201 ft | 0 kts | 278° |
| 2026-04-25 11:35 | -2.42303 | -54.78384 | 202 ft | 1 kts | 278° |
| 2026-04-25 11:36 | -2.42300 | -54.78413 | 206 ft | 8 kts | 271° |
| 2026-04-25 11:36 | -2.42306 | -54.78462 | 192 ft | 13 kts | 258° |
| 2026-04-25 11:36 | -2.42348 | -54.78550 | 202 ft | 14 kts | 239° |
| 2026-04-25 11:36 | -2.42308 | -54.78628 | 193 ft | 13 kts | 317° |
| 2026-04-25 11:37 | -2.42242 | -54.78690 | 196 ft | 13 kts | 316° |
| 2026-04-25 11:37 | -2.42180 | -54.78753 | 191 ft | 13 kts | 304° |
| 2026-04-25 11:37 | -2.42170 | -54.78839 | 195 ft | 14 kts | 261° |
| 2026-04-25 11:37 | -2.42187 | -54.78948 | 202 ft | 17 kts | 259° |
| 2026-04-25 11:38 | -2.42208 | -54.79077 | 190 ft | 20 kts | 260° |
| 2026-04-25 11:38 | -2.42231 | -54.79211 | 184 ft | 19 kts | 260° |
| 2026-04-25 11:38 | -2.42252 | -54.79339 | 185 ft | 19 kts | 261° |
| 2026-04-25 11:38 | -2.42272 | -54.79464 | 186 ft | 18 kts | 260° |
| 2026-04-25 11:39 | -2.42292 | -54.79588 | 182 ft | 19 kts | 261° |
| 2026-04-25 11:39 | -2.42316 | -54.79729 | 180 ft | 22 kts | 259° |
| 2026-04-25 11:39 | -2.42341 | -54.79875 | 180 ft | 21 kts | 262° |
| 2026-04-25 11:39 | -2.42363 | -54.80016 | 181 ft | 20 kts | 260° |
| 2026-04-25 11:40 | -2.42386 | -54.80156 | 178 ft | 21 kts | 261° |
| 2026-04-25 11:40 | -2.42432 | -54.80272 | 177 ft | 15 kts | 214° |
| 2026-04-25 11:40 | -2.42419 | -54.80318 | 176 ft | 7 kts | 41° |
| 2026-04-25 11:40 | -2.42399 | -54.80242 | 176 ft | 28 kts | 81° |
| 2026-04-25 11:41 | -2.42326 | -54.79795 | 180 ft | 101 kts | 81° |
| 2026-04-25 11:41 | -2.42178 | -54.78890 | 193 ft | 161 kts | 81° |
| 2026-04-25 11:41 | -2.41991 | -54.77700 | 707 ft | 174 kts | 81° |
| 2026-04-25 11:41 | -2.41802 | -54.76511 | 1535 ft | 174 kts | 81° |
| 2026-04-25 11:42 | -2.41592 | -54.75225 | 1896 ft | 203 kts | 80° |
| 2026-04-25 11:42 | -2.41351 | -54.73769 | 2327 ft | 217 kts | 80° |
| 2026-04-25 11:42 | -2.41104 | -54.72271 | 2838 ft | 223 kts | 80° |
| 2026-04-25 11:42 | -2.40853 | -54.70738 | 3474 ft | 224 kts | 80° |
| 2026-04-25 11:43 | -2.40591 | -54.69129 | 3751 ft | 248 kts | 81° |
| 2026-04-25 11:43 | -2.40303 | -54.67355 | 4147 ft | 266 kts | 81° |
| 2026-04-25 11:43 | -2.40002 | -54.65507 | 4861 ft | 271 kts | 81° |
| 2026-04-25 11:43 | -2.39698 | -54.63635 | 5632 ft | 274 kts | 81° |
| 2026-04-25 11:44 | -2.39391 | -54.61745 | 6392 ft | 277 kts | 81° |
| 2026-04-25 11:44 | -2.39081 | -54.59830 | 7130 ft | 280 kts | 81° |
| 2026-04-25 11:44 | -2.38766 | -54.57895 | 7868 ft | 283 kts | 81° |
| 2026-04-25 11:44 | -2.38453 | -54.55965 | 8586 ft | 286 kts | 81° |
| 2026-04-25 11:45 | -2.38132 | -54.53990 | 9304 ft | 289 kts | 81° |
| 2026-04-25 11:45 | -2.37807 | -54.51994 | 10012 ft | 292 kts | 81° |
| 2026-04-25 11:45 | -2.37419 | -54.49961 | 10414 ft | 307 kts | 74° |
| 2026-04-25 11:45 | -2.36737 | -54.47857 | 10651 ft | 326 kts | 70° |
| 2026-04-25 11:46 | -2.35939 | -54.45704 | 11206 ft | 334 kts | 69° |
| 2026-04-25 11:46 | -2.35120 | -54.43520 | 11913 ft | 336 kts | 69° |
| 2026-04-25 11:46 | -2.34306 | -54.41318 | 12629 ft | 339 kts | 69° |
| 2026-04-25 11:46 | -2.33498 | -54.39091 | 13320 ft | 343 kts | 70° |
| 2026-04-25 11:47 | -2.32689 | -54.36833 | 14005 ft | 346 kts | 70° |
| 2026-04-25 11:47 | -2.31881 | -54.34555 | 14699 ft | 350 kts | 70° |
| 2026-04-25 11:47 | -2.31067 | -54.32251 | 15383 ft | 353 kts | 70° |
| 2026-04-25 11:47 | -2.30245 | -54.29921 | 16062 ft | 357 kts | 70° |
| 2026-04-25 11:48 | -2.29417 | -54.27568 | 16740 ft | 360 kts | 70° |
| 2026-04-25 11:48 | -2.28578 | -54.25188 | 17384 ft | 364 kts | 70° |
| 2026-04-25 11:48 | -2.27733 | -54.22789 | 18011 ft | 367 kts | 70° |
| 2026-04-25 11:48 | -2.26891 | -54.20400 | 18623 ft | 371 kts | 70° |
| 2026-04-25 11:49 | -2.26044 | -54.17949 | 19224 ft | 374 kts | 73° |
| 2026-04-25 11:49 | -2.25711 | -54.15365 | 19775 ft | 378 kts | 91° |
| 2026-04-25 11:49 | -2.25799 | -54.12726 | 20381 ft | 380 kts | 92° |
| 2026-04-25 11:49 | -2.25903 | -54.10069 | 20938 ft | 384 kts | 92° |
| 2026-04-25 11:50 | -2.26000 | -54.07390 | 21466 ft | 388 kts | 92° |
| 2026-04-25 11:50 | -2.26085 | -54.04679 | 21996 ft | 391 kts | 91° |
| 2026-04-25 11:50 | -2.26159 | -54.01950 | 22514 ft | 394 kts | 91° |
| 2026-04-25 11:50 | -2.26227 | -53.99207 | 23015 ft | 397 kts | 91° |
| 2026-04-25 11:51 | -2.26291 | -53.96470 | 23496 ft | 400 kts | 91° |
| 2026-04-25 11:51 | -2.26356 | -53.93681 | 23971 ft | 403 kts | 91° |
| 2026-04-25 11:51 | -2.26422 | -53.90848 | 24433 ft | 406 kts | 91° |
| 2026-04-25 11:51 | -2.26488 | -53.88014 | 24880 ft | 408 kts | 91° |
| 2026-04-25 11:52 | -2.26554 | -53.85169 | 25317 ft | 411 kts | 91° |
| 2026-04-25 11:52 | -2.26525 | -53.82336 | 25726 ft | 414 kts | 84° |
| 2026-04-25 11:52 | -2.26130 | -53.79472 | 26134 ft | 417 kts | 81° |
| 2026-04-25 11:52 | -2.25641 | -53.76600 | 26544 ft | 419 kts | 80° |
| 2026-04-25 11:53 | -2.25134 | -53.73717 | 26920 ft | 422 kts | 80° |
| 2026-04-25 11:53 | -2.24629 | -53.70820 | 27297 ft | 425 kts | 80° |
| 2026-04-25 11:53 | -2.24130 | -53.67895 | 27673 ft | 427 kts | 80° |
| 2026-04-25 11:53 | -2.23640 | -53.64960 | 28033 ft | 429 kts | 81° |
| 2026-04-25 11:54 | -2.23155 | -53.62009 | 28383 ft | 432 kts | 81° |
| 2026-04-25 11:54 | -2.22670 | -53.59034 | 28724 ft | 434 kts | 81° |
| 2026-04-25 11:54 | -2.21698 | -53.53046 | 29373 ft | 438 kts | 81° |
| 2026-04-25 11:55 | -2.21209 | -53.50031 | 29684 ft | 441 kts | 81° |
| 2026-04-25 11:55 | -2.20722 | -53.47036 | 29979 ft | 443 kts | 81° |
| 2026-04-25 11:55 | -2.20221 | -53.43947 | 30284 ft | 444 kts | 81° |
| 2026-04-25 11:55 | -2.19731 | -53.40934 | 30573 ft | 446 kts | 81° |
| 2026-04-25 11:56 | -2.19231 | -53.37861 | 30843 ft | 448 kts | 81° |
| 2026-04-25 11:56 | -2.18729 | -53.34774 | 31106 ft | 450 kts | 81° |
| 2026-04-25 11:56 | -2.18225 | -53.31680 | 31357 ft | 452 kts | 81° |
| 2026-04-25 11:56 | -2.17719 | -53.28571 | 31614 ft | 454 kts | 81° |
| 2026-04-25 11:57 | -2.17212 | -53.25451 | 31867 ft | 456 kts | 81° |
| 2026-04-25 11:57 | -2.16702 | -53.22315 | 32117 ft | 457 kts | 81° |
| 2026-04-25 11:57 | -2.16189 | -53.19165 | 32324 ft | 459 kts | 81° |
| 2026-04-25 11:57 | -2.15675 | -53.16005 | 32546 ft | 461 kts | 81° |
| 2026-04-25 11:58 | -2.15160 | -53.12846 | 32844 ft | 460 kts | 81° |
| 2026-04-25 11:58 | -2.14647 | -53.09689 | 33182 ft | 459 kts | 81° |
| 2026-04-25 11:58 | -2.14143 | -53.06587 | 33499 ft | 457 kts | 81° |
| 2026-04-25 11:58 | -2.13633 | -53.03445 | 33771 ft | 457 kts | 81° |
| 2026-04-25 11:59 | -2.13124 | -53.00304 | 34030 ft | 457 kts | 81° |
| 2026-04-25 11:59 | -2.12615 | -52.97171 | 34310 ft | 457 kts | 81° |
| 2026-04-25 11:59 | -2.12107 | -52.94042 | 34593 ft | 456 kts | 81° |
| 2026-04-25 12:00 | -2.11091 | -52.87791 | 35106 ft | 455 kts | 81° |
| 2026-04-25 12:00 | -2.10584 | -52.84667 | 35338 ft | 454 kts | 81° |
| 2026-04-25 12:00 | -2.09576 | -52.78465 | 35827 ft | 453 kts | 81° |
| 2026-04-25 12:01 | -2.09070 | -52.75350 | 36063 ft | 453 kts | 81° |
| 2026-04-25 12:01 | -2.08565 | -52.72250 | 36286 ft | 452 kts | 81° |
| 2026-04-25 12:01 | -2.08058 | -52.69146 | 36490 ft | 452 kts | 81° |
| 2026-04-25 12:01 | -2.07549 | -52.66040 | 36668 ft | 453 kts | 81° |
| 2026-04-25 12:02 | -2.06531 | -52.59823 | 36993 ft | 454 kts | 81° |
| 2026-04-25 12:02 | -2.05507 | -52.53567 | 37002 ft | 457 kts | 81° |
| 2026-04-25 12:03 | -2.04484 | -52.47316 | 36990 ft | 452 kts | 81° |
| 2026-04-25 12:03 | -2.03470 | -52.41142 | 37000 ft | 449 kts | 81° |
| 2026-04-25 12:04 | -2.02464 | -52.35035 | 37000 ft | 447 kts | 81° |
| 2026-04-25 12:04 | -2.01455 | -52.28906 | 37002 ft | 446 kts | 81° |
| 2026-04-25 12:05 | -2.00447 | -52.22781 | 37003 ft | 446 kts | 81° |
| 2026-04-25 12:05 | -1.99441 | -52.16668 | 37003 ft | 447 kts | 81° |
| 2026-04-25 12:06 | -1.98431 | -52.10533 | 37004 ft | 449 kts | 81° |
| 2026-04-25 12:06 | -1.97415 | -52.04359 | 37004 ft | 451 kts | 81° |
| 2026-04-25 12:07 | -1.96395 | -51.98165 | 37004 ft | 452 kts | 81° |
| 2026-04-25 12:07 | -1.95371 | -51.91949 | 37001 ft | 454 kts | 81° |
| 2026-04-25 12:08 | -1.94342 | -51.85708 | 37003 ft | 455 kts | 81° |
| 2026-04-25 12:08 | -1.93319 | -51.79500 | 37001 ft | 455 kts | 81° |
| 2026-04-25 12:09 | -1.92287 | -51.73238 | 37001 ft | 455 kts | 81° |
| 2026-04-25 12:09 | -1.91255 | -51.66983 | 37000 ft | 455 kts | 81° |
| 2026-04-25 12:10 | -1.90227 | -51.60750 | 37001 ft | 454 kts | 81° |
| 2026-04-25 12:10 | -1.89205 | -51.54549 | 37001 ft | 453 kts | 81° |
| 2026-04-25 12:11 | -1.88178 | -51.48330 | 37000 ft | 452 kts | 81° |
| 2026-04-25 12:11 | -1.87156 | -51.42133 | 37000 ft | 451 kts | 81° |
| 2026-04-25 12:12 | -1.86307 | -51.36990 | 37000 ft | 451 kts | 81° |
| 2026-04-25 12:12 | -1.85114 | -51.29768 | 37001 ft | 450 kts | 81° |
| 2026-04-25 12:13 | -1.84103 | -51.23642 | 37001 ft | 449 kts | 81° |
| 2026-04-25 12:13 | -1.83085 | -51.17482 | 37002 ft | 449 kts | 81° |
| 2026-04-25 12:14 | -1.82067 | -51.11319 | 37001 ft | 449 kts | 81° |
| 2026-04-25 12:14 | -1.81048 | -51.05148 | 37002 ft | 450 kts | 81° |
| 2026-04-25 12:15 | -1.80026 | -50.98966 | 37004 ft | 450 kts | 81° |
| 2026-04-25 12:15 | -1.79490 | -50.92739 | 37007 ft | 450 kts | 88° |
| 2026-04-25 12:16 | -1.79406 | -50.86475 | 37003 ft | 451 kts | 89° |
| 2026-04-25 12:16 | -1.79304 | -50.80229 | 37003 ft | 452 kts | 89° |
| 2026-04-25 12:17 | -1.79132 | -50.73952 | 37001 ft | 452 kts | 88° |
| 2026-04-25 12:17 | -1.78931 | -50.67672 | 37001 ft | 452 kts | 88° |
| 2026-04-25 12:18 | -1.78731 | -50.61513 | 36978 ft | 429 kts | 88° |
| 2026-04-25 12:18 | -1.78636 | -50.58585 | 36976 ft | 415 kts | 88° |
| 2026-04-25 12:18 | -1.78545 | -50.55748 | 36983 ft | 404 kts | 88° |
| 2026-04-25 12:19 | -1.78271 | -50.47223 | 37018 ft | 416 kts | 88° |
| 2026-04-25 12:20 | -1.78083 | -50.41380 | 37015 ft | 424 kts | 88° |
| 2026-04-25 12:20 | -1.77895 | -50.35523 | 37006 ft | 425 kts | 88° |
| 2026-04-25 12:21 | -1.77704 | -50.29565 | 37001 ft | 426 kts | 88° |
| 2026-04-25 12:21 | -1.77514 | -50.23687 | 36999 ft | 426 kts | 88° |
| 2026-04-25 12:22 | -1.77324 | -50.17764 | 36997 ft | 425 kts | 88° |
| 2026-04-25 12:22 | -1.77134 | -50.11874 | 36996 ft | 422 kts | 88° |
| 2026-04-25 12:23 | -1.76632 | -50.06046 | 36999 ft | 420 kts | 82° |
| 2026-04-25 12:23 | -1.75768 | -50.00290 | 36998 ft | 418 kts | 81° |
| 2026-04-25 12:24 | -1.74926 | -49.94601 | 36999 ft | 416 kts | 82° |
| 2026-04-25 12:24 | -1.74128 | -49.88872 | 36348 ft | 418 kts | 82° |
| 2026-04-25 12:24 | -1.73732 | -49.85957 | 35473 ft | 428 kts | 82° |
| 2026-04-25 12:25 | -1.73555 | -49.83988 | 34995 ft | 431 kts | 92° |
| 2026-04-25 12:25 | -1.74196 | -49.81122 | 34904 ft | 416 kts | 116° |
| 2026-04-25 12:25 | -1.75716 | -49.78723 | 34838 ft | 403 kts | 133° |
| 2026-04-25 12:25 | -1.77782 | -49.76900 | 34729 ft | 391 kts | 148° |
| 2026-04-25 12:26 | -1.81036 | -49.75470 | 34298 ft | 384 kts | 169° |
| 2026-04-25 12:26 | -1.82814 | -49.75223 | 34010 ft | 382 kts | 180° |
| 2026-04-25 12:26 | -1.86261 | -49.75719 | 33489 ft | 378 kts | 201° |
| 2026-04-25 12:26 | -1.87871 | -49.76444 | 33266 ft | 374 kts | 212° |
| 2026-04-25 12:27 | -1.89925 | -49.78023 | 32940 ft | 369 kts | 227° |
| 2026-04-25 12:27 | -1.91485 | -49.80041 | 32619 ft | 365 kts | 240° |
| 2026-04-25 12:27 | -1.92538 | -49.82291 | 32275 ft | 362 kts | 254° |
| 2026-04-25 12:27 | -1.93050 | -49.84740 | 31919 ft | 360 kts | 262° |
| 2026-04-25 12:28 | -1.93387 | -49.87216 | 31601 ft | 357 kts | 263° |
| 2026-04-25 12:28 | -1.93692 | -49.89674 | 31284 ft | 355 kts | 263° |
| 2026-04-25 12:28 | -1.94002 | -49.92116 | 30962 ft | 353 kts | 263° |
| 2026-04-25 12:28 | -1.94326 | -49.94538 | 30611 ft | 349 kts | 262° |
| 2026-04-25 12:29 | -1.94656 | -49.96929 | 30185 ft | 347 kts | 262° |
| 2026-04-25 12:29 | -1.94991 | -49.99313 | 29718 ft | 345 kts | 262° |
| 2026-04-25 12:29 | -1.95301 | -50.01682 | 29256 ft | 342 kts | 268° |
| 2026-04-25 12:29 | -1.95060 | -50.04036 | 28741 ft | 340 kts | 285° |
| 2026-04-25 12:30 | -1.94208 | -50.06227 | 28287 ft | 337 kts | 298° |
| 2026-04-25 12:30 | -1.92942 | -50.08161 | 27818 ft | 335 kts | 310° |
| 2026-04-25 12:30 | -1.91275 | -50.09785 | 27335 ft | 334 kts | 323° |
| 2026-04-25 12:30 | -1.89282 | -50.10950 | 26864 ft | 332 kts | 337° |
| 2026-04-25 12:31 | -1.87065 | -50.11571 | 26392 ft | 331 kts | 352° |
| 2026-04-25 12:31 | -1.84776 | -50.11615 | 25928 ft | 330 kts | 6° |
| 2026-04-25 12:31 | -1.82551 | -50.11095 | 25466 ft | 328 kts | 20° |
| 2026-04-25 12:31 | -1.80527 | -50.10055 | 25002 ft | 327 kts | 34° |
| 2026-04-25 12:32 | -1.78822 | -50.08563 | 24545 ft | 325 kts | 49° |
| 2026-04-25 12:32 | -1.77505 | -50.06738 | 24184 ft | 322 kts | 63° |
| 2026-04-25 12:32 | -1.76711 | -50.04671 | 23978 ft | 328 kts | 76° |
| 2026-04-25 12:32 | -1.76300 | -50.02349 | 23779 ft | 351 kts | 81° |
| 2026-04-25 12:33 | -1.75949 | -49.99845 | 23558 ft | 375 kts | 82° |
| 2026-04-25 12:33 | -1.75593 | -49.97181 | 23330 ft | 396 kts | 82° |
| 2026-04-25 12:33 | -1.75227 | -49.94443 | 23079 ft | 399 kts | 82° |
| 2026-04-25 12:33 | -1.74852 | -49.91697 | 22825 ft | 398 kts | 82° |
| 2026-04-25 12:34 | -1.74472 | -49.88970 | 22564 ft | 395 kts | 82° |
| 2026-04-25 12:34 | -1.74089 | -49.86253 | 22309 ft | 394 kts | 82° |
| 2026-04-25 12:34 | -1.73706 | -49.83555 | 21987 ft | 391 kts | 82° |
| 2026-04-25 12:34 | -1.73452 | -49.81775 | 21716 ft | 388 kts | 82° |
| 2026-04-25 12:35 | -1.72948 | -49.78252 | 21125 ft | 384 kts | 82° |
| 2026-04-25 12:35 | -1.72572 | -49.75619 | 20681 ft | 382 kts | 82° |
| 2026-04-25 12:35 | -1.72197 | -49.72995 | 20230 ft | 380 kts | 82° |
| 2026-04-25 12:35 | -1.71824 | -49.70387 | 19776 ft | 377 kts | 82° |
| 2026-04-25 12:36 | -1.71454 | -49.67799 | 19323 ft | 375 kts | 82° |
| 2026-04-25 12:36 | -1.71092 | -49.65210 | 18876 ft | 373 kts | 82° |
| 2026-04-25 12:36 | -1.70743 | -49.62674 | 18438 ft | 371 kts | 82° |
| 2026-04-25 12:36 | -1.70391 | -49.60110 | 17990 ft | 369 kts | 82° |
| 2026-04-25 12:37 | -1.70043 | -49.57577 | 17546 ft | 367 kts | 82° |
| 2026-04-25 12:37 | -1.69697 | -49.55056 | 17102 ft | 365 kts | 82° |
| 2026-04-25 12:37 | -1.69355 | -49.52573 | 16665 ft | 363 kts | 82° |
| 2026-04-25 12:37 | -1.69011 | -49.50072 | 16221 ft | 361 kts | 82° |
| 2026-04-25 12:38 | -1.68668 | -49.47586 | 15784 ft | 359 kts | 82° |
| 2026-04-25 12:38 | -1.68329 | -49.45125 | 15351 ft | 357 kts | 82° |
| 2026-04-25 12:38 | -1.67990 | -49.42667 | 14915 ft | 355 kts | 82° |
| 2026-04-25 12:38 | -1.67657 | -49.40257 | 14489 ft | 353 kts | 82° |
| 2026-04-25 12:39 | -1.67322 | -49.37832 | 14060 ft | 351 kts | 82° |
| 2026-04-25 12:39 | -1.66990 | -49.35422 | 13637 ft | 349 kts | 82° |
| 2026-04-25 12:39 | -1.66658 | -49.33020 | 13221 ft | 347 kts | 82° |
| 2026-04-25 12:39 | -1.66329 | -49.30638 | 12794 ft | 345 kts | 82° |
| 2026-04-25 12:40 | -1.66002 | -49.28268 | 12377 ft | 343 kts | 82° |
| 2026-04-25 12:40 | -1.65677 | -49.25911 | 11956 ft | 341 kts | 82° |
| 2026-04-25 12:40 | -1.65358 | -49.23599 | 11553 ft | 339 kts | 82° |
| 2026-04-25 12:40 | -1.65037 | -49.21275 | 11147 ft | 337 kts | 82° |
| 2026-04-25 12:41 | -1.64717 | -49.18957 | 10742 ft | 335 kts | 82° |
| 2026-04-25 12:41 | -1.64401 | -49.16675 | 10546 ft | 326 kts | 82° |
| 2026-04-25 12:41 | -1.64095 | -49.14457 | 10389 ft | 317 kts | 82° |
| 2026-04-25 12:41 | -1.63798 | -49.12305 | 10242 ft | 308 kts | 82° |
| 2026-04-25 12:42 | -1.63509 | -49.10212 | 10110 ft | 300 kts | 82° |
| 2026-04-25 12:42 | -1.63321 | -49.08854 | 10021 ft | 294 kts | 82° |
| 2026-04-25 12:42 | -1.62953 | -49.06190 | 9716 ft | 289 kts | 82° |
| 2026-04-25 12:42 | -1.62679 | -49.04207 | 9426 ft | 287 kts | 82° |
| 2026-04-25 12:43 | -1.62406 | -49.02233 | 9119 ft | 286 kts | 82° |
| 2026-04-25 12:43 | -1.62134 | -49.00262 | 8818 ft | 285 kts | 82° |
| 2026-04-25 12:43 | -1.61598 | -48.96381 | 8235 ft | 283 kts | 82° |
| 2026-04-25 12:44 | -1.61329 | -48.94440 | 7943 ft | 281 kts | 82° |
| 2026-04-25 12:44 | -1.61062 | -48.92508 | 7655 ft | 280 kts | 82° |
| 2026-04-25 12:44 | -1.60529 | -48.88650 | 7065 ft | 278 kts | 82° |
| 2026-04-25 12:45 | -1.60265 | -48.86741 | 6773 ft | 277 kts | 82° |
| 2026-04-25 12:45 | -1.60002 | -48.84837 | 6493 ft | 276 kts | 82° |
| 2026-04-25 12:45 | -1.59484 | -48.81090 | 6073 ft | 268 kts | 82° |
| 2026-04-25 12:46 | -1.59231 | -48.79260 | 5938 ft | 261 kts | 82° |
| 2026-04-25 12:46 | -1.58988 | -48.77505 | 5819 ft | 254 kts | 82° |
| 2026-04-25 12:46 | -1.58750 | -48.75780 | 5706 ft | 247 kts | 82° |
| 2026-04-25 12:46 | -1.58518 | -48.74101 | 5576 ft | 241 kts | 82° |
| 2026-04-25 12:47 | -1.58289 | -48.72449 | 5317 ft | 240 kts | 82° |
| 2026-04-25 12:47 | -1.58061 | -48.70804 | 5107 ft | 238 kts | 82° |
| 2026-04-25 12:47 | -1.57836 | -48.69176 | 4884 ft | 231 kts | 82° |
| 2026-04-25 12:47 | -1.57532 | -48.67634 | 4609 ft | 226 kts | 65° |
| 2026-04-25 12:48 | -1.56582 | -48.66427 | 4384 ft | 217 kts | 42° |
| 2026-04-25 12:48 | -1.55516 | -48.65383 | 4141 ft | 212 kts | 44° |
| 2026-04-25 12:48 | -1.54485 | -48.64353 | 3912 ft | 207 kts | 44° |
| 2026-04-25 12:48 | -1.53483 | -48.63356 | 3718 ft | 200 kts | 43° |
| 2026-04-25 12:49 | -1.52502 | -48.62400 | 3516 ft | 194 kts | 44° |
| 2026-04-25 12:49 | -1.51559 | -48.61458 | 3297 ft | 189 kts | 44° |
| 2026-04-25 12:49 | -1.50647 | -48.60536 | 3089 ft | 184 kts | 44° |
| 2026-04-25 12:49 | -1.49771 | -48.59646 | 2888 ft | 179 kts | 44° |
| 2026-04-25 12:50 | -1.48903 | -48.58764 | 2764 ft | 175 kts | 44° |
| 2026-04-25 12:50 | -1.48042 | -48.57889 | 2600 ft | 180 kts | 44° |
| 2026-04-25 12:50 | -1.47157 | -48.56991 | 2378 ft | 182 kts | 44° |
| 2026-04-25 12:50 | -1.46286 | -48.56106 | 2136 ft | 174 kts | 44° |
| 2026-04-25 12:51 | -1.45465 | -48.55271 | 1898 ft | 165 kts | 44° |
| 2026-04-25 12:51 | -1.44672 | -48.54465 | 1729 ft | 160 kts | 44° |
| 2026-04-25 12:51 | -1.43888 | -48.53669 | 1500 ft | 158 kts | 44° |
| 2026-04-25 12:51 | -1.43123 | -48.52892 | 1280 ft | 156 kts | 44° |
| 2026-04-25 12:52 | -1.42360 | -48.52117 | 1072 ft | 157 kts | 44° |
| 2026-04-25 12:52 | -1.41604 | -48.51349 | 878 ft | 156 kts | 43° |
| 2026-04-25 12:52 | -1.40846 | -48.50601 | 695 ft | 150 kts | 44° |
| 2026-04-25 12:52 | -1.40138 | -48.49860 | 460 ft | 145 kts | 45° |
| 2026-04-25 12:53 | -1.39406 | -48.49111 | 258 ft | 153 kts | 44° |
| 2026-04-25 12:53 | -1.38657 | -48.48357 | 56 ft | 151 kts | 44° |
| 2026-04-25 12:53 | -1.37988 | -48.47678 | 40 ft | 118 kts | 45° |
| 2026-04-25 12:53 | -1.37516 | -48.47201 | 42 ft | 74 kts | 45° |
| 2026-04-25 12:54 | -1.37289 | -48.46976 | 44 ft | 25 kts | 37° |
| 2026-04-25 12:54 | -1.37189 | -48.46900 | 43 ft | 12 kts | 101° |
| 2026-04-25 12:54 | -1.37239 | -48.46903 | 43 ft | 9 kts | 231° |
| 2026-04-25 12:54 | -1.37297 | -48.46972 | 44 ft | 19 kts | 230° |
| 2026-04-25 12:55 | -1.37404 | -48.47086 | 43 ft | 23 kts | 225° |
| 2026-04-25 12:55 | -1.37476 | -48.47160 | 42 ft | 23 kts | 226° |
| 2026-04-25 12:55 | -1.37616 | -48.47301 | 41 ft | 20 kts | 225° |
| 2026-04-25 12:55 | -1.37709 | -48.47395 | 39 ft | 18 kts | 226° |
| 2026-04-25 12:56 | -1.37796 | -48.47484 | 40 ft | 18 kts | 225° |
| 2026-04-25 12:56 | -1.37880 | -48.47568 | 39 ft | 16 kts | 224° |
| 2026-04-25 12:56 | -1.37973 | -48.47618 | 37 ft | 15 kts | 191° |
| 2026-04-25 12:56 | -1.38076 | -48.47631 | 40 ft | 15 kts | 185° |
| 2026-04-25 12:57 | -1.38176 | -48.47639 | 42 ft | 14 kts | 185° |
| 2026-04-25 12:57 | -1.38272 | -48.47647 | 42 ft | 14 kts | 185° |
| 2026-04-25 12:57 | -1.38382 | -48.47657 | 42 ft | 19 kts | 185° |
| 2026-04-25 12:57 | -1.38526 | -48.47670 | 43 ft | 21 kts | 185° |
| 2026-04-25 12:58 | -1.38657 | -48.47702 | 43 ft | 17 kts | 234° |
| 2026-04-25 12:58 | -1.38690 | -48.47791 | 42 ft | 9 kts | 200° |
| 2026-04-25 12:58 | -1.38754 | -48.47799 | 42 ft | 9 kts | 185° |
| 2026-04-25 12:58 | -1.38817 | -48.47805 | 42 ft | 9 kts | 185° |
| 2026-04-25 12:59 | -1.38878 | -48.47810 | 42 ft | 9 kts | 185° |
| 2026-04-25 12:59 | -1.38936 | -48.47815 | 42 ft | 8 kts | 185° |
| 2026-04-25 12:59 | -1.38964 | -48.47839 | 42 ft | 5 kts | 268° |
| 2026-04-25 12:59 | -1.38961 | -48.47871 | 42 ft | 4 kts | 275° |
| 2026-04-25 13:00 | -1.38960 | -48.47887 | 42 ft | 0 kts | 275° |